• Join FlightAware (Why Join?)
  • Login
  • US Flag 
06:13PM EST


 

Airport Tracker/Info


-or-


 

Live Flight TrackerFlight Track Log ✈ SWA789 ✈ 19-Mar-2012 ✈ KPVD - KMDW

Flight Track Log - Related Links

Times and Time Zones

All times are in EDT time to prevent confusion due to time zone crossing. See the SWA789 flight status page for this flight to view local times or setup timezone preferences in your user account.

Time Position Orientation Groundspeed Altitude Reporting Facility
EDT Latitude Longitude Course Direction KTS MPH feet Rate Location/Type
11:12AM 41.7061 -71.4447 278° West 154 177 900  Level Boston Center
11:14AM 41.7244 -71.6308 327° Northwest 251 289 5,200 2,160 Climbing Boston Center
11:15AM 41.7831 -71.6828 326° Northwest 252 290 8,200 2,700 Climbing Boston Center
11:16AM 41.8522 -71.7461 325° Northwest 276 318 10,600 2,160 Climbing Boston Center
11:17AM 41.9236 -71.8122 302° West 321 369 12,600 2,220 Climbing Boston Center
11:18AM 41.9783 -71.9319 293° West 340 391 15,100 2,280 Climbing Boston Center
11:19AM 42.0142 -72.0433 293° West 350 403 17,200 1,920 Climbing Boston Center
11:20AM 42.0583 -72.1828 293° West 371 427 19,000 1,740 Climbing Boston Center
11:21AM 42.1003 -72.3142 291° West 377 434 20,700 1,620 Climbing Boston Center
11:22AM 42.1400 -72.4514 293° West 383 441 22,300 1,620 Climbing Boston Center
11:23AM 42.1836 -72.5914 292° West 399 459 24,000 1,500 Climbing Boston Center
11:24AM 42.2269 -72.7344 291° West 404 465 25,300 1,320 Climbing Boston Center
11:25AM 42.2683 -72.8833 291° West 414 476 26,700 1,380 Climbing Boston Center
11:26AM 42.3114 -73.0325 294° West 420 483 28,100 1,320 Climbing Boston Center
11:27AM 42.3544 -73.1622 290° West 420 483 29,400 1,260 Climbing Boston Center
11:28AM 42.3950 -73.3117 283° West 420 483 30,700 1,260 Climbing Boston Center
11:29AM 42.4228 -73.4694 283° West 425 489 32,000 1,260 Climbing Boston Center
11:30AM 42.4483 -73.6189 282° West 419 482 33,300 960 Climbing Boston Center
11:31AM 42.4717 -73.7714 280° West 414 476 34,000 300 Climbing Boston Center
11:32AM 42.4928 -73.9267 281° West 414 476 34,000  Level Boston Center
11:33AM 42.5156 -74.0908 282° West 414 476 34,000  Level Boston Center
11:34AM 42.5364 -74.2264 280° West 414 476 34,000  Level Boston Center
11:35AM 42.5586 -74.3936 281° West 414 476 34,000  Level Boston Center
11:36AM 42.5772 -74.5294 280° West 414 476 34,000  Level Boston Center
11:37AM 42.5989 -74.6936 280° West 414 476 34,000  Level Boston Center
11:38AM 42.6169 -74.8356 281° West 415 478 34,000  Level Boston Center
11:39AM 42.6406 -75.0000 280° West 415 478 34,000  Level Boston Center
11:40AM 42.6597 -75.1533 281° West 409 471 34,000  Level Boston Center
11:41AM 42.6811 -75.3042 280° West 409 471 34,000  Level Boston Center
11:42AM 42.7003 -75.4547 281° West 409 471 34,000  Level Boston Center
11:43AM 42.7211 -75.6083 277° West 409 471 34,000  Level Boston Center
11:44AM 42.7353 -75.7619 265° West 414 476 34,000  Level Boston Center
11:45AM 42.7244 -75.9139 261° West 408 470 34,000  Level Boston Center
11:46AM 42.7072 -76.0683 260° West 408 470 34,000  Level Boston Center
11:48AM 42.6767 -76.3014 261° West 386 444 34,000  Level Cleveland Center
11:49AM 42.6594 -76.4550 261° West 398 458 34,000  Level Cleveland Center
11:50AM 42.6417 -76.6058 261° West 409 471 34,000  Level Cleveland Center
11:51AM 42.6225 -76.7736 260° West 409 471 34,000  Level Cleveland Center
11:52AM 42.6022 -76.9217 261° West 409 471 34,000  Level Cleveland Center
11:53AM 42.5842 -77.0750 261° West 414 476 34,000  Level Cleveland Center
11:54AM 42.5656 -77.2253 261° West 414 476 34,000  Level Cleveland Center
11:55AM 42.5469 -77.3786 258° West 414 476 34,000  Level Cleveland Center
11:56AM 42.5239 -77.5292 261° West 409 471 34,000  Level Cleveland Center
11:57AM 42.5050 -77.6822 260° West 414 476 34,000  Level Cleveland Center
11:58AM 42.4892 -77.8011 260° West 414 476 34,000  Level Cleveland Center
11:59AM 42.4681 -77.9711 260° West 414 476 34,000  Level Cleveland Center
12:00PM 42.4486 -78.1239 259° West 414 476 34,000  Level Cleveland Center
12:01PM 42.4250 -78.2936 260° West 414 476 34,000  Level Cleveland Center
12:02PM 42.4050 -78.4461 260° West 414 476 34,000  Level Cleveland Center
12:03PM 42.3847 -78.5986 259° West 414 476 34,000  Level Cleveland Center
12:04PM 42.3622 -78.7539 260° West 414 476 34,000  Level Cleveland Center
12:05PM 42.3417 -78.9033 259° West 414 476 34,000  Level Cleveland Center
12:06PM 42.3189 -79.0583 259° West 414 476 34,000  Level Cleveland Center
12:07PM 42.2978 -79.1992 258° West 414 476 34,000  Level Cleveland Center
12:08PM 42.2744 -79.3514 258° West 420 483 34,000  Level Cleveland Center
12:09PM 42.2508 -79.5033 259° West 420 483 34,000  Level Cleveland Center
12:10PM 42.2294 -79.6578 259° West 420 483 34,000  Level Cleveland Center
12:11PM 42.2075 -79.8094 258° West 420 483 34,000  Level Cleveland Center
12:12PM 42.1833 -79.9667 257° West 420 483 34,000  Level Cleveland Center
12:13PM 42.1550 -80.1350 260° West 420 483 34,000  Level Cleveland Center
12:14PM 42.1347 -80.2836 258° West 415 478 34,000  Level Cleveland Center
12:15PM 42.1100 -80.4375 258° West 415 478 34,000  Level Cleveland Center
12:16PM 42.0850 -80.5917 257° West 410 472 34,000  Level Cleveland Center
12:17PM 42.0600 -80.7397 259° West 420 483 34,000  Level Cleveland Center
12:18PM 42.0367 -80.8964 257° West 415 478 34,000  Level Cleveland Center
12:19PM 42.0133 -81.0303 258° West 415 478 34,000  Level Cleveland Center
12:20PM 41.9897 -81.1808 257° West 409 471 34,000  Level Cleveland Center
12:21PM 41.9639 -81.3317 258° West 414 476 34,000  Level Cleveland Center
12:22PM 41.9397 -81.4819 257° West 414 476 34,000  Level Cleveland Center
12:23PM 41.9133 -81.6322 258° West 414 476 34,000  Level Cleveland Center
12:24PM 41.8892 -81.7797 257° West 414 476 34,000  Level Cleveland Center
12:25PM 41.8625 -81.9297 259° West 414 476 34,000  Level Cleveland Center
12:26PM 41.8397 -82.0797 255° West 408 470 34,000  Level Cleveland Center
12:27PM 41.8061 -82.2461 258° West 415 478 34,000  Level Cleveland Center
12:28PM 41.7831 -82.3958 245° Southwest 415 478 34,000  Level Cleveland Center
12:29PM 41.7350 -82.5336 235° Southwest 415 478 34,000  Level Cleveland Center
12:30PM 41.6681 -82.6622 235° Southwest 415 478 34,000  Level Cleveland Center
12:31PM 41.6011 -82.7881 213° Southwest 425 489 34,000  Level Cleveland Center
12:32PM 41.5014 -82.8761 207° Southwest 416 479 34,000  Level Cleveland Center
12:33PM 41.3914 -82.9497 208° Southwest 436 502 34,000  Level Cleveland Center
12:34PM 41.2856 -83.0231 207° Southwest 443 510 34,000  Level Cleveland Center
12:35PM 41.1778 -83.0964 229° Southwest 438 504 34,000  Level Cleveland Center
12:36PM 41.1128 -83.1958 278° West 379 436 34,000  Level Cleveland Center
12:37PM 41.1283 -83.3372 283° West 344 396 34,000  Level Cleveland Center
12:38PM 41.1519 -83.4761 279° West 360 414 34,000  Level Cleveland Center
12:39PM 41.1708 -83.6342 283° West 380 437 34,000  Level Cleveland Center
12:40PM 41.1942 -83.7706 282° West 391 450 34,000  Level Cleveland Center
12:41PM 41.2172 -83.9153 282° West 397 457 34,000  Level Cleveland Center
12:42PM 41.2400 -84.0572 281° West 397 457 34,000  Level Cleveland Center
12:43PM 41.2606 -84.1992 281° West 392 451 34,000  Level Cleveland Center
12:44PM 41.2794 -84.3275 282° West 392 451 34,000 -1,080 Level Cleveland Center
12:45PM 41.3100 -84.5142 280° West 367 422 31,500 -1,740 Descending Chicago Center
12:46PM 41.3283 -84.6511 282° West 374 430 30,000 -780 Descending Chicago Center
12:47PM 41.3481 -84.7800 282° West 364 419 30,000  Level Chicago Center
12:48PM 41.3681 -84.9114 281° West 364 419 30,000 -540 Level Chicago Center
12:49PM 41.3878 -85.0511 280° West 381 438 29,000 -1,020 Descending Chicago Center
12:50PM 41.4081 -85.2050 282° West 387 445 28,000 -1,440 Descending Chicago Center
12:51PM 41.4300 -85.3478 280° West 387 445 26,200 -2,040 Descending Chicago Center
12:52PM 41.4472 -85.4822 281° West 387 445 24,000 -1,620 Descending Chicago Center
12:53PM 41.4658 -85.6086 281° West 366 421 23,000 -960 Descending Chicago Center
12:54PM 41.4844 -85.7325 282° West 348 400 22,100 -1,440 Descending Chicago Center
12:55PM 41.5028 -85.8478 280° West 353 406 20,200 -1,980 Descending Chicago Center
12:56PM 41.5192 -85.9775 275° West 353 406 18,200 -2,100 Descending Chicago Center
12:57PM 41.5269 -86.1017 268° West 346 398 16,000 -2,280 Descending Chicago Center
12:58PM 41.5242 -86.2267 269° West 341 392 13,700 -2,340 Descending Chicago Center
12:59PM 41.5231 -86.3461 271° West 341 392 11,400 -1,500 Descending Chicago Center
01:00PM 41.5242 -86.4653 268° West 335 386 10,700 -720 Descending Chicago Center
01:01PM 41.5208 -86.5903 272° West 316 364 10,000 -360 Descending Chicago Center
01:02PM 41.5233 -86.6928 269° West 300 345 10,000  Level Chicago Center
01:03PM 41.5214 -86.7900 270° West 291 335 10,000 -60 Level Chicago Center
01:04PM 41.5217 -86.8925 268° West 286 329 9,900 -780 Descending Chicago Center
01:05PM 41.5194 -86.9925 275° West 286 329 8,500 -1,260 Descending Chicago Center
01:08PM 41.5333 -87.2000 283° West 267 307 6,000 -1,260 Descending Chicago TRACON
01:09PM 41.5500 -87.3000 285° West 266 306 4,700 -960 Descending Chicago TRACON
01:09PM 41.5667 -87.3833 285° West 239 275 4,200 -360 Descending Chicago TRACON
01:11PM 41.5833 -87.4667 312° West 216 249 4,000 -120 Descending Chicago TRACON
01:11PM 41.6167 -87.5167 315° West 223 257 4,000  Level Chicago TRACON
01:13PM 41.6667 -87.5833 312° West 198 228 4,000 -480 Level Chicago TRACON
01:14PM 41.7000 -87.6333 323° Northwest 192 221 3,100 -960 Descending Chicago TRACON
01:14PM 41.7333 -87.6667 346° North 171 197 2,200 -780 Descending Chicago TRACON
01:15PM 41.7833 -87.6833 340° North 178 205 1,700 -420 Descending Chicago TRACON
01:16PM 41.8167 -87.7000 340° North 136 157 1,400 -300 Descending Chicago TRACON